createdAt,value
2023-05-04T00:02:02.576Z,9.15
2023-05-04T00:04:46.352Z,9.04
2023-05-04T00:07:30.252Z,9.03
2023-05-04T00:10:13.868Z,9.33
2023-05-04T00:12:57.418Z,9.39
2023-05-04T00:15:41.635Z,9.27
2023-05-04T00:18:25.253Z,9.11
2023-05-04T00:21:09.037Z,8.90
2023-05-04T00:23:52.686Z,9.03
2023-05-04T00:26:36.344Z,8.55
2023-05-04T00:29:20.152Z,8.68
2023-05-04T00:32:04.476Z,8.74
2023-05-04T00:34:49.508Z,9.02
2023-05-04T00:37:33.123Z,8.81
2023-05-04T00:40:16.840Z,8.88
2023-05-04T00:43:01.004Z,8.96
2023-05-04T00:45:44.877Z,8.41
2023-05-04T00:48:28.488Z,8.61
2023-05-04T00:51:14.519Z,8.47
2023-05-04T00:54:01.012Z,8.61
2023-05-04T00:56:45.410Z,8.81
2023-05-04T00:59:29.128Z,8.63
2023-05-04T01:02:12.644Z,8.51
2023-05-04T01:04:56.456Z,8.56
2023-05-04T01:07:54.331Z,8.61
2023-05-04T01:10:47.420Z,8.77
2023-05-04T01:13:36.191Z,8.65
2023-05-04T01:16:20.325Z,8.48
2023-05-04T01:19:05.355Z,8.59
2023-05-04T01:21:48.998Z,8.61
2023-05-04T01:24:33.783Z,8.41
2023-05-04T01:27:36.405Z,8.37
2023-05-04T01:30:28.446Z,8.62
2023-05-04T01:33:12.783Z,8.67
2023-05-04T01:35:59.615Z,8.58
2023-05-04T01:38:43.282Z,8.37
2023-05-04T01:41:33.074Z,8.50
2023-05-04T01:44:16.816Z,8.22
2023-05-04T01:47:00.884Z,8.27
2023-05-04T01:49:44.651Z,8.32
2023-05-04T01:52:28.360Z,8.24
2023-05-04T01:55:12.336Z,8.25
2023-05-04T01:57:56.000Z,8.27
2023-05-04T02:00:39.797Z,8.38
2023-05-04T02:03:23.693Z,8.22
2023-05-04T02:06:07.652Z,8.12
2023-05-04T02:08:53.531Z,8.02
2023-05-04T02:11:37.106Z,8.09
2023-05-04T02:14:21.140Z,8.00
2023-05-04T02:17:04.834Z,7.92
2023-05-04T02:19:48.370Z,8.07
2023-05-04T02:22:31.937Z,7.85
2023-05-04T02:25:16.042Z,7.77
2023-05-04T02:27:59.560Z,7.70
2023-05-04T02:30:43.068Z,7.68
2023-05-04T02:33:26.695Z,7.53
2023-05-04T02:36:10.248Z,7.73
2023-05-04T02:38:55.319Z,7.45
2023-05-04T02:41:38.868Z,7.54
2023-05-04T02:44:22.387Z,7.64
2023-05-04T02:47:06.370Z,7.41
2023-05-04T02:49:49.906Z,7.43
2023-05-04T02:52:34.192Z,7.35
2023-05-04T02:55:17.678Z,7.48
2023-05-04T02:58:01.374Z,7.25
2023-05-04T03:00:44.912Z,7.30
2023-05-04T03:03:28.452Z,7.14
2023-05-04T03:06:12.309Z,7.14
2023-05-04T03:08:56.077Z,7.27
2023-05-04T03:11:39.559Z,7.14
2023-05-04T03:14:23.425Z,7.17
2023-05-04T03:17:07.245Z,7.17
2023-05-04T03:19:50.817Z,7.16
2023-05-04T03:22:34.778Z,6.96
2023-05-04T03:25:18.832Z,6.96
2023-05-04T03:28:02.447Z,7.05
2023-05-04T03:30:45.976Z,7.04
2023-05-04T03:33:29.574Z,7.01
2023-05-04T03:36:13.694Z,6.97
2023-05-04T03:38:58.116Z,6.96
2023-05-04T03:41:41.740Z,6.86
2023-05-04T03:44:25.377Z,6.77
2023-05-04T03:47:08.985Z,6.80
2023-05-04T03:49:52.713Z,6.87
2023-05-04T03:52:37.476Z,6.86
2023-05-04T03:55:21.468Z,6.83
2023-05-04T03:58:07.326Z,6.99
2023-05-04T04:00:51.052Z,6.98
2023-05-04T04:03:44.125Z,6.96
2023-05-04T04:06:30.103Z,6.99
2023-05-04T04:09:13.596Z,6.93
2023-05-04T04:11:57.578Z,6.69
2023-05-04T04:14:41.274Z,6.55
2023-05-04T04:17:25.027Z,6.62
2023-05-04T04:20:10.034Z,6.61
2023-05-04T04:22:53.884Z,6.68
2023-05-04T04:25:38.002Z,6.57
2023-05-04T04:28:21.646Z,6.72
2023-05-04T04:31:05.255Z,6.65
2023-05-04T04:33:51.502Z,6.57
2023-05-04T04:36:35.118Z,6.68
2023-05-04T04:39:18.775Z,6.71
2023-05-04T04:42:02.886Z,6.75
2023-05-04T04:44:46.376Z,6.89
2023-05-04T04:47:29.894Z,6.86
2023-05-04T04:50:13.572Z,7.00
2023-05-04T04:52:57.137Z,6.96
2023-05-04T04:55:42.053Z,7.04
2023-05-04T04:58:25.626Z,7.00
2023-05-04T05:01:09.268Z,6.94
2023-05-04T05:03:52.819Z,7.30
2023-05-04T05:06:36.855Z,7.29
2023-05-04T05:09:20.398Z,7.19
2023-05-04T05:12:07.365Z,7.31
2023-05-04T05:14:51.131Z,7.40
2023-05-04T05:17:35.804Z,7.51
2023-05-04T05:20:19.372Z,7.48
2023-05-04T05:23:03.007Z,7.63
2023-05-04T05:25:46.525Z,7.66
2023-05-04T05:28:30.483Z,7.73
2023-05-04T05:31:14.007Z,7.82
2023-05-04T05:33:57.596Z,7.86
2023-05-04T05:36:41.096Z,7.98
2023-05-04T05:39:24.649Z,8.16
2023-05-04T05:42:08.417Z,8.07
2023-05-04T05:44:51.951Z,8.21
2023-05-04T05:47:35.605Z,8.29
2023-05-04T05:50:20.147Z,8.52
2023-05-04T05:53:03.688Z,8.58
2023-05-04T05:55:47.577Z,8.69
2023-05-04T05:58:31.379Z,8.53
2023-05-04T06:01:15.181Z,8.58
2023-05-04T06:03:58.990Z,8.70
2023-05-04T06:06:45.144Z,8.79
2023-05-04T06:09:29.512Z,9.06
2023-05-04T06:12:17.286Z,9.15
2023-05-04T06:15:00.782Z,9.11
2023-05-04T06:17:44.349Z,9.26
2023-05-04T06:20:29.243Z,9.24
2023-05-04T06:23:14.714Z,9.32
2023-05-04T06:25:58.708Z,9.56
2023-05-04T06:28:42.284Z,9.60
2023-05-04T06:31:25.991Z,9.65
2023-05-04T06:34:09.473Z,9.68
2023-05-04T06:36:52.996Z,9.88
2023-05-04T06:39:36.505Z,9.96
2023-05-04T06:42:21.094Z,10.22
2023-05-04T06:45:06.990Z,10.26
2023-05-04T06:47:50.517Z,10.41
2023-05-04T06:50:34.064Z,10.34
2023-05-04T06:53:17.597Z,10.52
2023-05-04T06:56:01.109Z,10.60
2023-05-04T06:58:44.609Z,10.54
2023-05-04T07:01:28.276Z,10.67
2023-05-04T07:04:11.812Z,10.93
2023-05-04T07:06:55.324Z,11.03
2023-05-04T07:09:38.895Z,11.17
2023-05-04T07:12:22.465Z,11.35
2023-05-04T07:15:06.847Z,11.37
2023-05-04T07:17:50.813Z,11.47
2023-05-04T07:20:34.410Z,11.55
2023-05-04T07:23:18.118Z,11.83
2023-05-04T07:26:01.844Z,11.54
2023-05-04T07:28:45.452Z,11.45
2023-05-04T07:31:30.668Z,11.88
2023-05-04T07:34:14.527Z,11.68
2023-05-04T07:36:58.080Z,12.18
2023-05-04T07:39:41.785Z,12.30
2023-05-04T07:42:28.029Z,12.50
2023-05-04T07:45:11.985Z,12.82
2023-05-04T07:47:55.548Z,12.92
2023-05-04T07:50:39.375Z,13.20
2023-05-04T07:53:25.546Z,13.21
2023-05-04T07:56:13.856Z,13.26
2023-05-04T07:58:57.484Z,13.26
2023-05-04T08:01:43.702Z,13.22
2023-05-04T08:04:27.682Z,13.61
2023-05-04T08:07:11.267Z,13.91
2023-05-04T08:09:56.016Z,14.25
2023-05-04T08:12:42.741Z,14.20
2023-05-04T08:15:26.455Z,14.27
2023-05-04T08:18:12.386Z,14.79
2023-05-04T08:20:56.016Z,15.16
2023-05-04T08:23:39.487Z,15.64
2023-05-04T08:26:23.832Z,15.89
2023-05-04T08:29:10.609Z,16.26
2023-05-04T08:31:57.764Z,15.47
2023-05-04T08:34:41.384Z,15.98
2023-05-04T08:37:24.912Z,16.33
2023-05-04T08:40:09.444Z,16.60
2023-05-04T08:42:53.679Z,17.05
2023-05-04T08:45:42.346Z,16.48
2023-05-04T08:48:26.119Z,16.40
2023-05-04T08:51:10.538Z,17.07
2023-05-04T08:53:55.809Z,17.75
2023-05-04T08:56:40.926Z,17.87
2023-05-04T08:59:28.189Z,18.13
2023-05-04T09:02:14.119Z,17.94
2023-05-04T09:04:58.006Z,16.77
2023-05-04T09:07:41.488Z,17.95
2023-05-04T09:10:28.149Z,18.43
2023-05-04T09:13:13.079Z,18.34
2023-05-04T09:15:58.469Z,18.29
2023-05-04T09:18:44.748Z,18.80
2023-05-04T09:21:30.736Z,19.01
2023-05-04T09:24:14.503Z,18.99
2023-05-04T09:27:10.915Z,19.48
2023-05-04T09:29:55.381Z,18.47
2023-05-04T09:32:49.760Z,18.89
2023-05-04T09:35:34.388Z,19.76
2023-05-04T09:38:35.258Z,16.93
2023-05-04T09:41:20.016Z,17.58
2023-05-04T09:44:04.950Z,19.00
2023-05-04T09:47:00.694Z,19.47
2023-05-04T09:49:44.588Z,18.95
2023-05-04T09:52:33.575Z,19.21
2023-05-04T09:55:21.093Z,19.93
2023-05-04T10:02:21.177Z,16.36
2023-05-04T10:05:09.481Z,17.14
2023-05-04T10:07:53.432Z,17.02
2023-05-04T10:10:39.700Z,17.68
2023-05-04T10:13:25.138Z,17.60
2023-05-04T10:16:29.810Z,17.24
2023-05-04T10:19:53.224Z,19.16
2023-05-04T10:23:02.622Z,19.52
2023-05-04T10:26:26.559Z,19.30
2023-05-04T10:29:33.440Z,18.37
2023-05-04T10:32:23.825Z,17.65
2023-05-04T10:35:10.197Z,18.41
2023-05-04T10:37:55.870Z,19.31
2023-05-04T10:40:41.056Z,20.20
2023-05-04T10:43:24.724Z,19.63
2023-05-04T10:46:24.609Z,19.35
2023-05-04T10:49:18.464Z,19.81
2023-05-04T10:52:07.229Z,18.62
2023-05-04T10:55:01.043Z,19.52
2023-05-04T10:57:54.547Z,20.72
2023-05-04T11:00:41.177Z,20.73
2023-05-04T11:03:25.219Z,20.83
2023-05-04T11:06:23.994Z,19.12
2023-05-04T11:09:10.741Z,18.33
2023-05-04T11:11:56.074Z,18.83
2023-05-04T11:14:43.512Z,19.30
2023-05-04T11:17:28.603Z,18.74
2023-05-04T11:20:26.337Z,18.48
2023-05-04T11:23:10.566Z,20.09
2023-05-04T11:25:55.001Z,20.51
2023-05-04T11:28:39.688Z,20.86
2023-05-04T11:31:23.374Z,21.18
2023-05-04T11:34:08.772Z,21.49
2023-05-04T11:36:54.348Z,21.23
2023-05-04T11:39:38.326Z,21.47
2023-05-04T11:42:21.858Z,20.83
2023-05-04T11:45:13.801Z,21.34
2023-05-04T11:50:42.339Z,21.75
2023-05-04T11:53:26.424Z,21.82
2023-05-04T11:56:10.030Z,22.40
2023-05-04T11:58:53.516Z,22.09
2023-05-04T12:01:37.403Z,21.75
2023-05-04T12:04:21.040Z,21.67
2023-05-04T12:07:08.639Z,21.65
2023-05-04T12:09:52.282Z,20.79
2023-05-04T12:12:36.599Z,20.82
2023-05-04T12:15:35.735Z,20.56
2023-05-04T12:18:29.571Z,20.47
2023-05-04T12:21:21.673Z,21.23
2023-05-04T12:24:06.744Z,21.88
2023-05-04T12:26:50.938Z,21.26
2023-05-04T12:29:34.490Z,21.10
2023-05-04T12:32:18.845Z,21.87
2023-05-04T12:35:02.640Z,21.92
2023-05-04T12:37:46.672Z,21.33
2023-05-04T12:40:30.976Z,22.17
2023-05-04T12:43:14.538Z,22.34
2023-05-04T12:45:58.175Z,23.21
2023-05-04T12:48:41.768Z,22.02
2023-05-04T12:51:25.520Z,22.10
2023-05-04T12:54:09.095Z,22.59
2023-05-04T12:56:53.539Z,22.73
2023-05-04T12:59:37.084Z,20.88
2023-05-04T13:02:20.692Z,20.49
2023-05-04T13:05:04.701Z,21.49
2023-05-04T13:07:48.411Z,21.86
2023-05-04T13:10:31.923Z,22.13
2023-05-04T13:13:17.863Z,19.92
2023-05-04T13:16:02.094Z,21.58
2023-05-04T13:18:45.669Z,20.70
2023-05-04T13:21:29.249Z,22.07
2023-05-04T13:24:12.864Z,21.65
2023-05-04T13:26:56.744Z,22.37
2023-05-04T13:29:41.699Z,22.23
2023-05-04T13:32:27.619Z,22.36
2023-05-04T13:35:11.323Z,22.68
2023-05-04T13:37:54.868Z,22.27
2023-05-04T13:40:38.607Z,23.09
2023-05-04T13:43:23.023Z,22.82
2023-05-04T13:46:06.534Z,22.80
2023-05-04T13:48:50.226Z,23.03
2023-05-04T13:51:34.892Z,23.01
2023-05-04T13:54:18.382Z,22.44
2023-05-04T13:57:02.325Z,20.35
2023-05-04T13:59:54.922Z,21.07
2023-05-04T14:02:54.313Z,22.67
2023-05-04T14:05:37.924Z,23.00
2023-05-04T14:08:21.615Z,23.38
2023-05-04T14:11:05.804Z,23.30
2023-05-04T14:13:49.349Z,21.72
2023-05-04T14:16:32.986Z,21.76
2023-05-04T14:19:16.728Z,23.15
2023-05-04T14:22:00.430Z,23.33
2023-05-04T14:24:44.032Z,23.51
2023-05-04T14:27:27.979Z,23.72
2023-05-04T14:30:12.357Z,23.63
2023-05-04T14:32:58.301Z,22.44
2023-05-04T14:35:44.667Z,23.42
2023-05-04T14:38:29.978Z,23.55
2023-05-04T14:41:14.439Z,23.51
2023-05-04T14:43:57.986Z,23.64
2023-05-04T14:46:41.521Z,20.90
2023-05-04T14:49:36.557Z,21.38
2023-05-04T14:52:21.437Z,21.98
2023-05-04T14:55:08.702Z,22.09
2023-05-04T14:57:52.361Z,22.71
2023-05-04T15:00:38.245Z,23.07
2023-05-04T15:03:23.801Z,21.91
2023-05-04T15:06:10.235Z,22.64
2023-05-04T15:08:54.535Z,23.27
2023-05-04T15:11:39.181Z,22.75
2023-05-04T15:14:23.555Z,22.61
2023-05-04T15:17:07.622Z,23.28
2023-05-04T15:19:52.011Z,23.05
2023-05-04T15:22:35.695Z,23.32
2023-05-04T15:25:20.168Z,23.30
2023-05-04T15:28:04.561Z,22.91
2023-05-04T15:30:48.076Z,22.86
2023-05-04T15:33:32.350Z,23.28
2023-05-04T15:36:15.875Z,23.21
2023-05-04T15:38:59.416Z,22.74
2023-05-04T15:41:43.123Z,23.11
2023-05-04T15:44:27.874Z,22.97
2023-05-04T15:47:12.590Z,23.00
2023-05-04T15:49:56.252Z,23.25
2023-05-04T15:52:40.090Z,23.32
2023-05-04T15:55:26.273Z,23.19
2023-05-04T15:58:11.619Z,23.45
2023-05-04T16:00:55.378Z,23.52
2023-05-04T16:03:38.997Z,22.05
2023-05-04T16:06:23.720Z,21.88
2023-05-04T16:09:07.669Z,21.86
2023-05-04T16:11:51.350Z,22.19
2023-05-04T16:14:34.953Z,22.90
2023-05-04T16:17:18.499Z,22.76
2023-05-04T16:20:04.030Z,23.17
2023-05-04T16:22:47.729Z,22.87
2023-05-04T16:25:31.297Z,22.78
2023-05-04T16:28:14.867Z,22.04
2023-05-04T16:30:58.421Z,22.87
2023-05-04T16:33:47.302Z,22.28
2023-05-04T16:36:31.760Z,21.04
2023-05-04T16:39:16.580Z,20.73
2023-05-04T16:42:02.371Z,21.70
2023-05-04T16:44:46.257Z,21.78
2023-05-04T16:47:29.811Z,22.11
2023-05-04T16:50:14.329Z,21.99
2023-05-04T16:52:58.354Z,22.05
2023-05-04T16:55:41.923Z,22.00
2023-05-04T16:58:25.778Z,21.45
2023-05-04T17:05:22.705Z,21.75
2023-05-04T17:08:06.961Z,20.81
2023-05-04T17:10:50.894Z,21.89
2023-05-04T17:13:34.982Z,21.56
2023-05-04T17:16:19.137Z,21.42
2023-05-04T17:19:03.002Z,20.80
2023-05-04T17:21:46.703Z,20.87
2023-05-04T17:24:30.484Z,20.98
2023-05-04T17:27:14.138Z,21.06
2023-05-04T17:29:58.013Z,20.85
2023-05-04T17:32:41.677Z,21.23
2023-05-04T17:35:26.460Z,21.01
2023-05-04T17:38:10.338Z,21.05
2023-05-04T17:40:53.893Z,20.94
2023-05-04T17:43:38.050Z,21.16
2023-05-04T17:46:21.817Z,20.87
2023-05-04T17:49:06.066Z,20.87
2023-05-04T17:51:49.688Z,21.10
2023-05-04T17:54:33.242Z,20.83
2023-05-04T17:57:16.783Z,20.52
2023-05-04T18:00:00.399Z,20.22
2023-05-04T18:02:44.107Z,20.40
2023-05-04T18:05:27.664Z,20.52
2023-05-04T18:08:11.195Z,20.41
2023-05-04T18:10:54.890Z,20.26
2023-05-04T18:13:38.428Z,20.39
2023-05-04T18:16:24.108Z,20.44
2023-05-04T18:19:08.181Z,20.14
2023-05-04T18:21:51.822Z,20.29
2023-05-04T18:24:35.459Z,20.28
2023-05-04T18:27:18.982Z,20.04
2023-05-04T18:30:05.824Z,19.88
2023-05-04T18:32:50.435Z,19.66
2023-05-04T18:35:34.198Z,19.45
2023-05-04T18:38:17.740Z,19.35
2023-05-04T18:41:01.432Z,19.65
2023-05-04T18:43:45.427Z,19.56
2023-05-04T18:46:29.093Z,19.26
2023-05-04T18:49:12.751Z,19.04
2023-05-04T18:51:56.399Z,18.90
2023-05-04T18:54:39.896Z,19.16
2023-05-04T18:57:23.486Z,18.86
2023-05-04T19:00:09.287Z,19.02
2023-05-04T19:02:53.106Z,18.66
2023-05-04T19:05:36.818Z,18.42
2023-05-04T19:08:21.217Z,18.20
2023-05-04T19:11:04.770Z,18.35
2023-05-04T19:13:49.843Z,18.06
2023-05-04T19:16:33.572Z,18.22
2023-05-04T19:19:17.778Z,18.43
2023-05-04T19:22:01.533Z,18.26
2023-05-04T19:24:49.010Z,18.30
2023-05-04T19:27:32.555Z,17.94
2023-05-04T19:30:16.121Z,18.04
2023-05-04T19:32:59.691Z,17.81
2023-05-04T19:35:43.605Z,17.92
2023-05-04T19:38:27.713Z,17.70
2023-05-04T19:41:11.489Z,17.54
2023-05-04T19:43:55.041Z,17.55
2023-05-04T19:46:38.663Z,17.50
2023-05-04T19:49:22.213Z,17.51
2023-05-04T19:52:07.111Z,17.60
2023-05-04T19:54:53.857Z,17.57
2023-05-04T19:57:37.431Z,17.37
2023-05-04T20:00:20.961Z,17.57
2023-05-04T20:03:05.067Z,17.32
2023-05-04T20:05:51.713Z,17.61
2023-05-04T20:08:35.576Z,17.44
2023-05-04T20:11:19.144Z,17.24
2023-05-04T20:14:02.737Z,17.18
2023-05-04T20:16:46.719Z,16.95
2023-05-04T20:19:30.282Z,17.07
2023-05-04T20:22:14.227Z,17.55
2023-05-04T20:24:57.831Z,17.27
2023-05-04T20:27:41.448Z,16.96
2023-05-04T20:30:28.221Z,16.92
2023-05-04T20:33:11.839Z,17.20
2023-05-04T20:35:55.649Z,17.34
2023-05-04T20:38:39.553Z,16.89
2023-05-04T20:41:24.004Z,16.72
2023-05-04T20:44:07.611Z,16.25
2023-05-04T20:46:51.196Z,15.97
2023-05-04T20:49:34.741Z,15.78
2023-05-04T20:52:18.539Z,15.97
2023-05-04T20:55:02.176Z,15.76
2023-05-04T20:57:45.757Z,15.90
2023-05-04T21:00:30.021Z,15.98
2023-05-04T21:03:14.600Z,15.54
2023-05-04T21:05:58.989Z,15.44
2023-05-04T21:08:42.482Z,15.63
2023-05-04T21:11:26.052Z,15.45
2023-05-04T21:14:09.753Z,15.31
2023-05-04T21:16:53.319Z,15.35
2023-05-04T21:19:36.814Z,15.49
2023-05-04T21:22:20.335Z,15.48
2023-05-04T21:25:04.166Z,15.14
2023-05-04T21:27:47.740Z,15.22
2023-05-04T21:30:31.562Z,15.30
2023-05-04T21:33:15.080Z,15.26
2023-05-04T21:35:58.600Z,15.38
2023-05-04T21:38:42.856Z,15.34
2023-05-04T21:41:26.440Z,15.48
2023-05-04T21:44:09.973Z,15.25
2023-05-04T21:46:53.618Z,15.12
2023-05-04T21:49:37.199Z,14.97
2023-05-04T21:52:21.314Z,14.85
2023-05-04T21:55:05.429Z,15.02
2023-05-04T21:57:48.918Z,14.47
2023-05-04T22:00:33.263Z,14.85
2023-05-04T22:03:16.768Z,14.70
2023-05-04T22:06:00.638Z,14.53
2023-05-04T22:08:44.962Z,14.51
2023-05-04T22:11:28.761Z,14.38
2023-05-04T22:14:12.373Z,14.94
2023-05-04T22:16:56.081Z,14.97
2023-05-04T22:19:39.726Z,14.97
2023-05-04T22:22:23.229Z,14.67
2023-05-04T22:25:07.315Z,14.85
2023-05-04T22:27:50.828Z,14.66
2023-05-04T22:30:34.570Z,14.13
2023-05-04T22:33:18.310Z,14.42
2023-05-04T22:36:04.600Z,14.24
2023-05-04T22:38:50.432Z,14.09
2023-05-04T22:41:33.984Z,14.14
2023-05-04T22:44:17.480Z,14.12
2023-05-04T22:47:01.103Z,14.18
2023-05-04T22:49:44.620Z,14.21
2023-05-04T22:52:28.195Z,14.33
2023-05-04T22:55:12.146Z,14.30
2023-05-04T22:57:55.707Z,13.96
2023-05-04T23:00:39.234Z,13.85
2023-05-04T23:03:23.632Z,13.99
2023-05-04T23:06:08.883Z,13.95
2023-05-04T23:08:52.432Z,13.71
2023-05-04T23:11:35.976Z,13.74
2023-05-04T23:14:19.511Z,13.40
2023-05-04T23:17:03.159Z,13.18
2023-05-04T23:19:46.834Z,13.19
2023-05-04T23:22:30.557Z,13.11
2023-05-04T23:25:14.100Z,13.13
2023-05-04T23:27:57.683Z,13.22
2023-05-04T23:30:41.227Z,13.16
2023-05-04T23:33:24.744Z,13.15
2023-05-04T23:36:08.803Z,13.36
2023-05-04T23:38:52.374Z,13.11
2023-05-04T23:41:35.904Z,13.22
2023-05-04T23:44:20.789Z,13.19
2023-05-04T23:47:04.301Z,13.01
2023-05-04T23:49:48.158Z,13.37
2023-05-04T23:52:31.947Z,13.30
2023-05-04T23:55:15.654Z,13.08
2023-05-04T23:57:59.176Z,12.99
